sensor_id;sensor_type;location;lat;lon;timestamp;P1;P2;P0
68841;PMS5003;55849;48.482;2.332;2023-04-24T04:54:20;3.25;2.00;1.50
68841;PMS5003;55849;48.482;2.332;2023-04-24T04:57:22;4.50;1.00;1.00
68841;PMS5003;55849;48.482;2.332;2023-04-24T05:00:24;2.50;2.50;1.00
68841;PMS5003;55849;48.482;2.332;2023-04-24T05:03:25;1.00;1.00;1.00
68841;PMS5003;55849;48.482;2.332;2023-04-24T05:06:27;3.50;3.00;1.00
68841;PMS5003;55849;48.482;2.332;2023-04-24T05:09:30;4.50;0.75;0.50
68841;PMS5003;55849;48.482;2.332;2023-04-24T05:12:32;1.50;1.50;1.00
68841;PMS5003;55849;48.482;2.332;2023-04-24T05:15:33;3.00;3.00;1.00
68841;PMS5003;55849;48.482;2.332;2023-04-24T05:18:35;1.00;1.00;1.00
68841;PMS5003;55849;48.482;2.332;2023-04-24T05:21:36;3.00;3.00;1.50
68841;PMS5003;55849;48.482;2.332;2023-04-24T05:24:40;1.50;1.50;1.00
68841;PMS5003;55849;48.482;2.332;2023-04-24T05:27:42;8.75;4.00;3.00
68841;PMS5003;55849;48.482;2.332;2023-04-24T05:30:44;3.00;1.00;0.00
68841;PMS5003;55849;48.482;2.332;2023-04-24T05:33:46;3.75;3.00;3.00
68841;PMS5003;55849;48.482;2.332;2023-04-24T05:36:47;4.00;4.00;3.00
68841;PMS5003;55849;48.482;2.332;2023-04-24T05:39:52;3.00;3.00;1.00
68841;PMS5003;55849;48.482;2.332;2023-04-24T05:42:53;3.00;3.00;1.00
68841;PMS5003;55849;48.482;2.332;2023-04-24T05:45:55;3.50;3.50;3.00
68841;PMS5003;55849;48.482;2.332;2023-04-24T05:48:56;6.00;3.25;1.00
68841;PMS5003;55849;48.482;2.332;2023-04-24T05:51:58;8.00;6.00;1.00
68841;PMS5003;55849;48.482;2.332;2023-04-24T05:55:01;1.00;1.00;1.00
68841;PMS5003;55849;48.482;2.332;2023-04-24T05:58:03;4.00;4.00;1.50
68841;PMS5003;55849;48.482;2.332;2023-04-24T06:01:04;3.50;3.50;1.00
68841;PMS5003;55849;48.482;2.332;2023-04-24T06:04:06;2.50;2.50;1.00
68841;PMS5003;55849;48.482;2.332;2023-04-24T06:07:07;3.25;3.25;3.00
68841;PMS5003;55849;48.482;2.332;2023-04-24T06:10:11;3.00;3.00;1.50
68841;PMS5003;55849;48.482;2.332;2023-04-24T06:13:12;5.00;4.00;3.00
68841;PMS5003;55849;48.482;2.332;2023-04-24T06:16:14;3.50;2.50;1.00
68841;PMS5003;55849;48.482;2.332;2023-04-24T06:19:16;6.00;1.50;1.50
68841;PMS5003;55849;48.482;2.332;2023-04-24T06:22:17;6.25;3.00;3.00
68841;PMS5003;55849;48.482;2.332;2023-04-24T06:25:20;6.00;2.50;1.00
68841;PMS5003;55849;48.482;2.332;2023-04-24T06:28:22;3.00;3.00;3.00
68841;PMS5003;55849;48.482;2.332;2023-04-24T06:31:23;4.00;4.00;2.50
68841;PMS5003;55849;48.482;2.332;2023-04-24T06:34:25;1.00;1.00;1.00
68841;PMS5003;55849;48.482;2.332;2023-04-24T06:37:26;3.00;3.00;1.50
68841;PMS5003;55849;48.482;2.332;2023-04-24T06:40:30;3.00;3.00;1.50
68841;PMS5003;55849;48.482;2.332;2023-04-24T06:43:31;1.00;1.00;1.00
68841;PMS5003;55849;48.482;2.332;2023-04-24T06:46:33;4.00;3.25;3.00
68841;PMS5003;55849;48.482;2.332;2023-04-24T06:49:35;6.50;3.00;1.00
68841;PMS5003;55849;48.482;2.332;2023-04-24T06:52:36;5.50;5.50;2.50
68841;PMS5003;55849;48.482;2.332;2023-04-24T15:50:25;5.00;3.25;3.00
68841;PMS5003;55849;48.482;2.332;2023-04-24T15:53:27;5.75;4.25;3.25
68841;PMS5003;55849;48.482;2.332;2023-04-24T15:56:28;5.00;3.75;3.00
68841;PMS5003;55849;48.482;2.332;2023-04-24T15:59:30;4.00;4.00;3.75
68841;PMS5003;55849;48.482;2.332;2023-04-24T16:02:32;6.25;6.25;4.50
68841;PMS5003;55849;48.482;2.332;2023-04-24T16:05:35;4.00;4.00;3.25
68841;PMS5003;55849;48.482;2.332;2023-04-24T16:08:37;5.75;4.75;4.25
68841;PMS5003;55849;48.482;2.332;2023-04-24T16:11:38;6.00;5.00;4.00
68841;PMS5003;55849;48.482;2.332;2023-04-24T16:14:40;6.50;5.00;3.75
68841;PMS5003;55849;48.482;2.332;2023-04-24T16:17:41;6.00;5.50;4.00
68841;PMS5003;55849;48.482;2.332;2023-04-24T16:20:45;7.00;7.00;4.00
68841;PMS5003;55849;48.482;2.332;2023-04-24T16:23:46;8.75;6.25;5.00
68841;PMS5003;55849;48.482;2.332;2023-04-24T16:26:48;5.25;5.00;3.00
68841;PMS5003;55849;48.482;2.332;2023-04-24T16:29:50;6.75;5.00;4.25
68841;PMS5003;55849;48.482;2.332;2023-04-24T16:32:51;5.25;5.25;4.25
68841;PMS5003;55849;48.482;2.332;2023-04-24T16:35:54;4.25;4.00;3.00
68841;PMS5003;55849;48.482;2.332;2023-04-24T16:38:56;7.75;6.75;5.00
68841;PMS5003;55849;48.482;2.332;2023-04-24T16:42:00;4.75;4.00;3.00
68841;PMS5003;55849;48.482;2.332;2023-04-24T16:45:02;7.50;6.00;4.75
68841;PMS5003;55849;48.482;2.332;2023-04-24T16:48:04;7.25;6.00;4.00
68841;PMS5003;55849;48.482;2.332;2023-04-24T16:51:08;5.00;5.00;3.50
68841;PMS5003;55849;48.482;2.332;2023-04-24T16:54:09;6.75;5.75;3.75
68841;PMS5003;55849;48.482;2.332;2023-04-24T16:57:11;7.00;6.00;3.00
68841;PMS5003;55849;48.482;2.332;2023-04-24T17:00:13;3.00;3.00;3.00
68841;PMS5003;55849;48.482;2.332;2023-04-24T17:03:16;3.25;3.25;2.50
68841;PMS5003;55849;48.482;2.332;2023-04-24T17:06:19;4.50;4.50;3.00
68841;PMS5003;55849;48.482;2.332;2023-04-24T17:09:21;6.00;5.75;5.00
68841;PMS5003;55849;48.482;2.332;2023-04-24T17:12:22;5.00;4.25;3.25
68841;PMS5003;55849;48.482;2.332;2023-04-24T17:15:24;6.50;5.00;3.75
68841;PMS5003;55849;48.482;2.332;2023-04-24T17:18:26;11.25;10.00;7.00
68841;PMS5003;55849;48.482;2.332;2023-04-24T17:21:29;5.25;4.25;3.00
68841;PMS5003;55849;48.482;2.332;2023-04-24T17:24:31;6.75;5.00;4.00
68841;PMS5003;55849;48.482;2.332;2023-04-24T17:27:33;7.25;7.25;5.50
68841;PMS5003;55849;48.482;2.332;2023-04-24T17:30:35;6.00;6.00;5.00
68841;PMS5003;55849;48.482;2.332;2023-04-24T17:33:36;7.00;6.25;4.25
68841;PMS5003;55849;48.482;2.332;2023-04-24T17:36:39;7.00;5.50;4.00
68841;PMS5003;55849;48.482;2.332;2023-04-24T17:39:41;3.25;3.25;2.50
68841;PMS5003;55849;48.482;2.332;2023-04-24T17:42:43;4.25;3.75;3.25
68841;PMS5003;55849;48.482;2.332;2023-04-24T17:45:45;15.50;13.75;10.00
68841;PMS5003;55849;48.482;2.332;2023-04-24T17:48:47;8.00;8.00;7.00
68841;PMS5003;55849;48.482;2.332;2023-04-24T17:51:50;9.50;9.25;7.00
68841;PMS5003;55849;48.482;2.332;2023-04-24T17:54:51;5.25;5.25;4.00
68841;PMS5003;55849;48.482;2.332;2023-04-24T17:57:53;10.50;8.50;7.00
68841;PMS5003;55849;48.482;2.332;2023-04-24T18:00:54;12.25;10.25;8.00
68841;PMS5003;55849;48.482;2.332;2023-04-24T18:03:56;12.50;9.00;6.25
68841;PMS5003;55849;48.482;2.332;2023-04-24T18:06:59;9.25;7.25;5.00
68841;PMS5003;55849;48.482;2.332;2023-04-24T18:10:00;13.75;11.75;7.50
68841;PMS5003;55849;48.482;2.332;2023-04-24T18:13:05;12.75;10.00;7.00
68841;PMS5003;55849;48.482;2.332;2023-04-24T18:16:07;9.75;8.25;6.50
68841;PMS5003;55849;48.482;2.332;2023-04-24T18:19:09;26.25;21.50;14.00
68841;PMS5003;55849;48.482;2.332;2023-04-24T18:22:12;28.75;25.00;17.50
68841;PMS5003;55849;48.482;2.332;2023-04-24T18:25:16;12.00;12.00;8.75
68841;PMS5003;55849;48.482;2.332;2023-04-24T18:28:25;8.00;8.00;6.00
68841;PMS5003;55849;48.482;2.332;2023-04-24T18:31:27;12.25;11.75;9.00
68841;PMS5003;55849;48.482;2.332;2023-04-24T18:34:32;11.00;8.50;6.75
68841;PMS5003;55849;48.482;2.332;2023-04-24T18:37:35;6.00;6.00;5.00
68841;PMS5003;55849;48.482;2.332;2023-04-24T18:40:36;10.75;9.75;7.00
68841;PMS5003;55849;48.482;2.332;2023-04-24T18:43:38;15.75;15.00;10.00
68841;PMS5003;55849;48.482;2.332;2023-04-24T18:46:40;14.25;14.25;9.75
68841;PMS5003;55849;48.482;2.332;2023-04-24T18:49:41;19.50;18.50;12.75
68841;PMS5003;55849;48.482;2.332;2023-04-24T18:52:44;23.50;19.75;11.25
68841;PMS5003;55849;48.482;2.332;2023-04-24T18:55:46;19.25;16.25;12.50
68841;PMS5003;55849;48.482;2.332;2023-04-24T18:58:48;48.75;40.00;26.00
68841;PMS5003;55849;48.482;2.332;2023-04-24T19:01:50;45.00;36.50;24.75
68841;PMS5003;55849;48.482;2.332;2023-04-24T19:04:52;37.25;33.00;22.25
68841;PMS5003;55849;48.482;2.332;2023-04-24T19:07:55;33.75;31.75;22.00
68841;PMS5003;55849;48.482;2.332;2023-04-24T19:10:57;24.50;21.50;17.00
68841;PMS5003;55849;48.482;2.332;2023-04-24T19:13:59;20.00;18.00;14.00
68841;PMS5003;55849;48.482;2.332;2023-04-24T19:17:03;22.25;19.75;15.00
68841;PMS5003;55849;48.482;2.332;2023-04-24T19:20:05;24.00;16.50;14.00
68841;PMS5003;55849;48.482;2.332;2023-04-24T19:23:08;18.50;14.25;9.25
68841;PMS5003;55849;48.482;2.332;2023-04-24T19:26:10;10.00;8.75;6.75
68841;PMS5003;55849;48.482;2.332;2023-04-24T19:29:13;9.25;9.00;6.00
68841;PMS5003;55849;48.482;2.332;2023-04-24T19:32:15;16.50;11.50;7.00
68841;PMS5003;55849;48.482;2.332;2023-04-24T19:35:16;11.00;9.00;7.00
68841;PMS5003;55849;48.482;2.332;2023-04-24T19:38:19;9.00;7.50;6.00
68841;PMS5003;55849;48.482;2.332;2023-04-24T19:41:21;19.50;16.00;9.25
68841;PMS5003;55849;48.482;2.332;2023-04-24T19:44:23;17.00;11.00;7.00
68841;PMS5003;55849;48.482;2.332;2023-04-24T19:47:24;26.50;22.25;17.50
68841;PMS5003;55849;48.482;2.332;2023-04-24T19:50:26;15.00;12.50;8.00
68841;PMS5003;55849;48.482;2.332;2023-04-24T19:53:29;12.50;9.75;7.00
68841;PMS5003;55849;48.482;2.332;2023-04-24T19:56:32;9.50;6.00;5.00
68841;PMS5003;55849;48.482;2.332;2023-04-24T19:59:33;5.50;5.50;5.00
68841;PMS5003;55849;48.482;2.332;2023-04-24T20:02:35;5.25;5.25;5.00
68841;PMS5003;55849;48.482;2.332;2023-04-24T20:05:37;11.75;8.75;6.75
68841;PMS5003;55849;48.482;2.332;2023-04-24T20:08:40;12.75;6.75;4.00
68841;PMS5003;55849;48.482;2.332;2023-04-24T20:11:42;10.50;8.00;5.50
68841;PMS5003;55849;48.482;2.332;2023-04-24T20:14:44;28.25;23.00;14.25
68841;PMS5003;55849;48.482;2.332;2023-04-24T20:17:47;4.00;4.00;3.00
68841;PMS5003;55849;48.482;2.332;2023-04-24T20:20:48;11.50;11.00;5.75
68841;PMS5003;55849;48.482;2.332;2023-04-24T20:23:54;4.75;3.50;2.50
68841;PMS5003;55849;48.482;2.332;2023-04-24T20:26:56;13.75;13.25;8.75
68841;PMS5003;55849;48.482;2.332;2023-04-24T20:29:57;12.50;11.25;8.00
68841;PMS5003;55849;48.482;2.332;2023-04-24T20:32:59;14.25;13.50;11.75
68841;PMS5003;55849;48.482;2.332;2023-04-24T20:36:01;4.75;4.25;3.75
68841;PMS5003;55849;48.482;2.332;2023-04-24T20:39:04;7.75;6.25;5.00
68841;PMS5003;55849;48.482;2.332;2023-04-24T20:42:07;2.75;2.75;2.00
68841;PMS5003;55849;48.482;2.332;2023-04-24T20:45:10;5.25;2.50;2.00
68841;PMS5003;55849;48.482;2.332;2023-04-24T20:48:11;2.25;2.25;2.00
68841;PMS5003;55849;48.482;2.332;2023-04-24T20:51:13;6.00;6.00;4.00
68841;PMS5003;55849;48.482;2.332;2023-04-24T20:54:16;6.50;4.50;4.00
68841;PMS5003;55849;48.482;2.332;2023-04-24T20:57:18;7.75;7.75;5.00
68841;PMS5003;55849;48.482;2.332;2023-04-24T21:00:20;8.00;6.25;4.25
68841;PMS5003;55849;48.482;2.332;2023-04-24T21:03:22;6.00;4.00;3.00
68841;PMS5003;55849;48.482;2.332;2023-04-24T21:06:23;4.50;3.75;2.50
68841;PMS5003;55849;48.482;2.332;2023-04-24T21:09:26;4.75;4.25;4.25
68841;PMS5003;55849;48.482;2.332;2023-04-24T21:12:28;5.50;5.00;3.50
68841;PMS5003;55849;48.482;2.332;2023-04-24T21:15:29;3.00;3.00;2.00
68841;PMS5003;55849;48.482;2.332;2023-04-24T21:18:31;2.00;2.00;2.00
68841;PMS5003;55849;48.482;2.332;2023-04-24T21:21:33;5.50;3.25;3.00
68841;PMS5003;55849;48.482;2.332;2023-04-24T21:24:36;7.50;7.00;4.50
68841;PMS5003;55849;48.482;2.332;2023-04-24T21:27:37;6.75;6.75;4.00
68841;PMS5003;55849;48.482;2.332;2023-04-24T21:30:39;5.75;5.00;4.00
68841;PMS5003;55849;48.482;2.332;2023-04-24T21:33:41;5.25;4.75;3.00
68841;PMS5003;55849;48.482;2.332;2023-04-24T21:36:42;6.00;4.00;3.00
68841;PMS5003;55849;48.482;2.332;2023-04-24T21:39:46;10.75;8.00;5.00
68841;PMS5003;55849;48.482;2.332;2023-04-24T21:42:47;8.00;7.00;3.75
68841;PMS5003;55849;48.482;2.332;2023-04-24T21:45:50;64.00;46.75;27.00
68841;PMS5003;55849;48.482;2.332;2023-04-24T21:48:52;32.75;28.50;18.00
68841;PMS5003;55849;48.482;2.332;2023-04-24T21:51:54;23.00;18.00;10.50
68841;PMS5003;55849;48.482;2.332;2023-04-24T21:54:56;13.75;11.50;7.00
68841;PMS5003;55849;48.482;2.332;2023-04-24T21:57:58;19.25;12.00;8.75
68841;PMS5003;55849;48.482;2.332;2023-04-24T22:01:00;9.75;8.50;6.00
68841;PMS5003;55849;48.482;2.332;2023-04-24T22:04:02;7.75;6.50;5.00
68841;PMS5003;55849;48.482;2.332;2023-04-24T22:07:04;8.75;5.50;5.00
68841;PMS5003;55849;48.482;2.332;2023-04-24T22:10:08;7.00;7.00;5.50
68841;PMS5003;55849;48.482;2.332;2023-04-24T22:13:10;10.00;9.75;6.00
68841;PMS5003;55849;48.482;2.332;2023-04-24T22:16:11;10.75;9.75;7.75
68841;PMS5003;55849;48.482;2.332;2023-04-24T22:19:13;9.25;9.25;6.75
68841;PMS5003;55849;48.482;2.332;2023-04-24T22:22:15;7.75;7.75;6.00
68841;PMS5003;55849;48.482;2.332;2023-04-24T22:25:18;10.00;8.75;7.00
68841;PMS5003;55849;48.482;2.332;2023-04-24T22:28:20;10.00;7.50;6.00
68841;PMS5003;55849;48.482;2.332;2023-04-24T22:31:21;11.00;9.00;5.75
68841;PMS5003;55849;48.482;2.332;2023-04-24T22:34:23;6.00;6.00;5.75
68841;PMS5003;55849;48.482;2.332;2023-04-24T22:37:24;7.50;7.25;6.00
